sensor_id;sensor_type;location;lat;lon;timestamp;P1;durP1;ratioP1;P2;durP2;ratioP2
21297;SDS011;10808;48.010;11.326;2023-04-25T00:00:00;4.20;;;2.60;;
21297;SDS011;10808;48.010;11.326;2023-04-25T00:02:26;3.67;;;2.22;;
21297;SDS011;10808;48.010;11.326;2023-04-25T00:04:53;4.00;;;2.30;;
21297;SDS011;10808;48.010;11.326;2023-04-25T00:07:24;5.10;;;2.38;;
21297;SDS011;10808;48.010;11.326;2023-04-25T00:09:50;4.30;;;2.17;;
21297;SDS011;10808;48.010;11.326;2023-04-25T00:12:16;2.97;;;2.22;;
21297;SDS011;10808;48.010;11.326;2023-04-25T00:14:42;3.30;;;2.05;;
21297;SDS011;10808;48.010;11.326;2023-04-25T00:17:09;3.40;;;2.10;;
21297;SDS011;10808;48.010;11.326;2023-04-25T00:19:36;3.80;;;2.47;;
21297;SDS011;10808;48.010;11.326;2023-04-25T00:22:03;4.18;;;2.33;;
21297;SDS011;10808;48.010;11.326;2023-04-25T00:24:30;3.38;;;2.30;;
21297;SDS011;10808;48.010;11.326;2023-04-25T00:26:56;3.47;;;2.30;;
21297;SDS011;10808;48.010;11.326;2023-04-25T00:29:22;3.23;;;2.20;;
21297;SDS011;10808;48.010;11.326;2023-04-25T00:31:48;2.50;;;2.20;;
21297;SDS011;10808;48.010;11.326;2023-04-25T00:34:14;3.78;;;2.42;;
21297;SDS011;10808;48.010;11.326;2023-04-25T00:36:40;3.22;;;2.50;;
21297;SDS011;10808;48.010;11.326;2023-04-25T00:39:07;4.38;;;2.60;;
21297;SDS011;10808;48.010;11.326;2023-04-25T00:41:33;2.85;;;2.55;;
21297;SDS011;10808;48.010;11.326;2023-04-25T00:43:59;4.03;;;2.50;;
21297;SDS011;10808;48.010;11.326;2023-04-25T00:46:26;3.22;;;2.20;;
21297;SDS011;10808;48.010;11.326;2023-04-25T00:48:52;4.05;;;2.40;;
21297;SDS011;10808;48.010;11.326;2023-04-25T00:51:21;4.20;;;2.53;;
21297;SDS011;10808;48.010;11.326;2023-04-25T00:53:48;3.50;;;2.47;;
21297;SDS011;10808;48.010;11.326;2023-04-25T00:56:15;4.18;;;2.42;;
21297;SDS011;10808;48.010;11.326;2023-04-25T00:58:41;2.80;;;2.33;;
21297;SDS011;10808;48.010;11.326;2023-04-25T01:01:08;4.07;;;2.35;;
21297;SDS011;10808;48.010;11.326;2023-04-25T01:03:37;4.90;;;2.65;;
21297;SDS011;10808;48.010;11.326;2023-04-25T01:06:08;3.90;;;2.60;;
21297;SDS011;10808;48.010;11.326;2023-04-25T01:08:35;3.97;;;2.40;;
21297;SDS011;10808;48.010;11.326;2023-04-25T01:11:02;4.80;;;2.50;;
21297;SDS011;10808;48.010;11.326;2023-04-25T01:13:28;3.15;;;2.42;;
21297;SDS011;10808;48.010;11.326;2023-04-25T01:15:55;4.38;;;2.70;;
21297;SDS011;10808;48.010;11.326;2023-04-25T01:18:21;4.40;;;2.40;;
21297;SDS011;10808;48.010;11.326;2023-04-25T01:20:47;5.38;;;2.70;;
21297;SDS011;10808;48.010;11.326;2023-04-25T01:23:16;3.78;;;2.50;;
21297;SDS011;10808;48.010;11.326;2023-04-25T01:25:43;4.57;;;2.42;;
21297;SDS011;10808;48.010;11.326;2023-04-25T01:28:10;3.10;;;2.58;;
21297;SDS011;10808;48.010;11.326;2023-04-25T01:30:36;4.68;;;2.58;;
21297;SDS011;10808;48.010;11.326;2023-04-25T01:33:04;3.10;;;2.58;;
21297;SDS011;10808;48.010;11.326;2023-04-25T01:35:31;3.90;;;2.60;;
21297;SDS011;10808;48.010;11.326;2023-04-25T01:37:57;3.22;;;2.78;;
21297;SDS011;10808;48.010;11.326;2023-04-25T01:40:23;5.32;;;2.60;;
21297;SDS011;10808;48.010;11.326;2023-04-25T01:42:50;4.07;;;2.70;;
21297;SDS011;10808;48.010;11.326;2023-04-25T01:45:17;3.72;;;2.65;;
21297;SDS011;10808;48.010;11.326;2023-04-25T01:47:43;3.60;;;2.70;;
21297;SDS011;10808;48.010;11.326;2023-04-25T01:50:14;3.88;;;2.78;;
21297;SDS011;10808;48.010;11.326;2023-04-25T01:52:42;4.20;;;2.43;;
21297;SDS011;10808;48.010;11.326;2023-04-25T01:55:08;3.30;;;2.67;;
21297;SDS011;10808;48.010;11.326;2023-04-25T01:57:34;4.67;;;2.77;;
21297;SDS011;10808;48.010;11.326;2023-04-25T02:00:02;4.38;;;2.50;;
21297;SDS011;10808;48.010;11.326;2023-04-25T02:02:29;4.22;;;2.53;;
21297;SDS011;10808;48.010;11.326;2023-04-25T02:04:55;6.53;;;2.70;;
21297;SDS011;10808;48.010;11.326;2023-04-25T02:07:22;3.45;;;2.83;;
21297;SDS011;10808;48.010;11.326;2023-04-25T02:09:48;3.53;;;2.60;;
21297;SDS011;10808;48.010;11.326;2023-04-25T02:12:14;2.92;;;2.42;;
21297;SDS011;10808;48.010;11.326;2023-04-25T02:14:40;4.93;;;2.80;;
21297;SDS011;10808;48.010;11.326;2023-04-25T02:17:06;5.53;;;2.85;;
21297;SDS011;10808;48.010;11.326;2023-04-25T02:19:32;3.13;;;2.65;;
21297;SDS011;10808;48.010;11.326;2023-04-25T02:21:58;3.27;;;2.50;;
21297;SDS011;10808;48.010;11.326;2023-04-25T02:24:24;3.45;;;2.60;;
21297;SDS011;10808;48.010;11.326;2023-04-25T02:26:50;3.80;;;2.70;;
21297;SDS011;10808;48.010;11.326;2023-04-25T02:29:18;3.22;;;2.50;;
21297;SDS011;10808;48.010;11.326;2023-04-25T02:31:44;3.97;;;2.40;;
21297;SDS011;10808;48.010;11.326;2023-04-25T02:34:10;6.63;;;2.97;;
21297;SDS011;10808;48.010;11.326;2023-04-25T02:36:36;4.03;;;3.07;;
21297;SDS011;10808;48.010;11.326;2023-04-25T02:39:02;6.15;;;3.00;;
21297;SDS011;10808;48.010;11.326;2023-04-25T02:41:28;6.63;;;2.83;;
21297;SDS011;10808;48.010;11.326;2023-04-25T02:43:54;5.00;;;2.50;;
21297;SDS011;10808;48.010;11.326;2023-04-25T02:46:21;5.63;;;2.50;;
21297;SDS011;10808;48.010;11.326;2023-04-25T02:48:47;5.57;;;2.58;;
21297;SDS011;10808;48.010;11.326;2023-04-25T02:51:15;4.40;;;2.53;;
21297;SDS011;10808;48.010;11.326;2023-04-25T02:53:42;4.10;;;2.88;;
21297;SDS011;10808;48.010;11.326;2023-04-25T02:56:08;5.32;;;3.20;;
21297;SDS011;10808;48.010;11.326;2023-04-25T02:58:34;5.70;;;2.88;;
21297;SDS011;10808;48.010;11.326;2023-04-25T03:01:00;6.73;;;2.60;;
21297;SDS011;10808;48.010;11.326;2023-04-25T03:03:26;3.80;;;2.70;;
21297;SDS011;10808;48.010;11.326;2023-04-25T03:05:52;4.13;;;2.45;;
21297;SDS011;10808;48.010;11.326;2023-04-25T03:08:18;3.50;;;2.60;;
21297;SDS011;10808;48.010;11.326;2023-04-25T03:10:44;4.05;;;2.58;;
21297;SDS011;10808;48.010;11.326;2023-04-25T03:13:10;3.60;;;2.40;;
21297;SDS011;10808;48.010;11.326;2023-04-25T03:15:37;3.92;;;2.20;;
21297;SDS011;10808;48.010;11.326;2023-04-25T03:18:04;3.67;;;2.40;;
21297;SDS011;10808;48.010;11.326;2023-04-25T03:20:30;4.57;;;2.60;;
21297;SDS011;10808;48.010;11.326;2023-04-25T03:22:56;4.75;;;2.55;;
21297;SDS011;10808;48.010;11.326;2023-04-25T03:25:22;4.40;;;2.30;;
21297;SDS011;10808;48.010;11.326;2023-04-25T03:27:48;3.85;;;2.40;;
21297;SDS011;10808;48.010;11.326;2023-04-25T03:30:14;3.25;;;2.10;;
21297;SDS011;10808;48.010;11.326;2023-04-25T03:32:40;4.22;;;2.60;;
21297;SDS011;10808;48.010;11.326;2023-04-25T03:35:06;2.50;;;1.90;;
21297;SDS011;10808;48.010;11.326;2023-04-25T03:37:32;3.00;;;2.00;;
21297;SDS011;10808;48.010;11.326;2023-04-25T03:39:58;2.85;;;1.95;;
21297;SDS011;10808;48.010;11.326;2023-04-25T03:42:24;2.20;;;1.90;;
21297;SDS011;10808;48.010;11.326;2023-04-25T03:44:51;4.03;;;2.03;;
21297;SDS011;10808;48.010;11.326;2023-04-25T03:47:17;4.03;;;2.00;;
21297;SDS011;10808;48.010;11.326;2023-04-25T03:49:43;2.73;;;1.83;;
21297;SDS011;10808;48.010;11.326;2023-04-25T03:52:10;2.50;;;1.90;;
21297;SDS011;10808;48.010;11.326;2023-04-25T03:54:36;3.45;;;2.20;;
21297;SDS011;10808;48.010;11.326;2023-04-25T03:57:02;3.13;;;2.20;;
21297;SDS011;10808;48.010;11.326;2023-04-25T03:59:28;3.30;;;2.20;;
21297;SDS011;10808;48.010;11.326;2023-04-25T04:01:54;3.75;;;2.10;;
21297;SDS011;10808;48.010;11.326;2023-04-25T04:04:20;2.97;;;2.20;;
21297;SDS011;10808;48.010;11.326;2023-04-25T04:06:46;3.38;;;2.20;;
21297;SDS011;10808;48.010;11.326;2023-04-25T04:09:12;4.38;;;2.40;;
21297;SDS011;10808;48.010;11.326;2023-04-25T04:11:38;3.80;;;2.35;;
21297;SDS011;10808;48.010;11.326;2023-04-25T04:14:05;4.57;;;2.30;;
21297;SDS011;10808;48.010;11.326;2023-04-25T04:16:32;3.90;;;2.20;;
21297;SDS011;10808;48.010;11.326;2023-04-25T04:18:58;3.13;;;2.20;;
21297;SDS011;10808;48.010;11.326;2023-04-25T04:21:24;4.60;;;2.50;;
21297;SDS011;10808;48.010;11.326;2023-04-25T04:23:52;2.90;;;2.30;;
21297;SDS011;10808;48.010;11.326;2023-04-25T04:26:20;3.70;;;2.40;;
21297;SDS011;10808;48.010;11.326;2023-04-25T04:28:49;5.47;;;2.40;;
21297;SDS011;10808;48.010;11.326;2023-04-25T04:31:20;5.35;;;2.67;;
21297;SDS011;10808;48.010;11.326;2023-04-25T04:33:47;4.63;;;2.97;;
21297;SDS011;10808;48.010;11.326;2023-04-25T04:36:13;5.68;;;2.97;;
21297;SDS011;10808;48.010;11.326;2023-04-25T04:38:39;4.65;;;2.88;;
21297;SDS011;10808;48.010;11.326;2023-04-25T04:41:08;4.85;;;2.95;;
21297;SDS011;10808;48.010;11.326;2023-04-25T04:43:34;5.18;;;3.05;;
21297;SDS011;10808;48.010;11.326;2023-04-25T04:46:00;4.57;;;2.90;;
21297;SDS011;10808;48.010;11.326;2023-04-25T04:48:26;4.55;;;3.17;;
21297;SDS011;10808;48.010;11.326;2023-04-25T04:50:53;4.22;;;2.92;;
21297;SDS011;10808;48.010;11.326;2023-04-25T04:53:19;5.15;;;3.20;;
21297;SDS011;10808;48.010;11.326;2023-04-25T04:55:45;6.43;;;2.80;;
21297;SDS011;10808;48.010;11.326;2023-04-25T04:58:11;6.22;;;2.90;;
21297;SDS011;10808;48.010;11.326;2023-04-25T05:00:37;4.35;;;2.95;;
21297;SDS011;10808;48.010;11.326;2023-04-25T05:03:03;4.68;;;3.22;;
21297;SDS011;10808;48.010;11.326;2023-04-25T05:05:30;5.03;;;2.90;;
21297;SDS011;10808;48.010;11.326;2023-04-25T05:07:56;5.60;;;3.45;;
21297;SDS011;10808;48.010;11.326;2023-04-25T05:10:23;4.32;;;2.65;;
21297;SDS011;10808;48.010;11.326;2023-04-25T05:12:49;4.75;;;2.97;;
21297;SDS011;10808;48.010;11.326;2023-04-25T05:15:16;4.90;;;3.00;;
21297;SDS011;10808;48.010;11.326;2023-04-25T05:17:42;5.35;;;3.05;;
21297;SDS011;10808;48.010;11.326;2023-04-25T05:20:08;5.50;;;3.00;;
21297;SDS011;10808;48.010;11.326;2023-04-25T05:22:35;3.88;;;2.85;;
21297;SDS011;10808;48.010;11.326;2023-04-25T05:25:01;4.95;;;3.00;;
21297;SDS011;10808;48.010;11.326;2023-04-25T05:27:27;5.35;;;2.90;;
21297;SDS011;10808;48.010;11.326;2023-04-25T05:29:53;6.25;;;3.10;;
21297;SDS011;10808;48.010;11.326;2023-04-25T05:32:20;5.93;;;3.10;;
21297;SDS011;10808;48.010;11.326;2023-04-25T05:34:46;4.53;;;2.95;;
21297;SDS011;10808;48.010;11.326;2023-04-25T05:37:12;6.40;;;3.40;;
21297;SDS011;10808;48.010;11.326;2023-04-25T05:39:38;5.32;;;3.28;;
21297;SDS011;10808;48.010;11.326;2023-04-25T05:42:04;3.97;;;2.88;;
21297;SDS011;10808;48.010;11.326;2023-04-25T05:44:30;5.35;;;3.50;;
21297;SDS011;10808;48.010;11.326;2023-04-25T05:46:56;4.30;;;3.10;;
21297;SDS011;10808;48.010;11.326;2023-04-25T05:49:22;4.50;;;3.33;;
21297;SDS011;10808;48.010;11.326;2023-04-25T05:51:48;5.95;;;3.70;;
21297;SDS011;10808;48.010;11.326;2023-04-25T05:54:14;6.70;;;3.55;;
21297;SDS011;10808;48.010;11.326;2023-04-25T05:56:40;6.50;;;3.70;;
21297;SDS011;10808;48.010;11.326;2023-04-25T05:59:07;5.50;;;3.42;;
21297;SDS011;10808;48.010;11.326;2023-04-25T06:01:33;5.78;;;3.50;;
21297;SDS011;10808;48.010;11.326;2023-04-25T06:03:59;5.50;;;3.67;;
21297;SDS011;10808;48.010;11.326;2023-04-25T06:06:25;4.70;;;3.50;;
21297;SDS011;10808;48.010;11.326;2023-04-25T06:08:52;8.80;;;4.30;;
21297;SDS011;10808;48.010;11.326;2023-04-25T06:11:18;6.32;;;4.10;;
21297;SDS011;10808;48.010;11.326;2023-04-25T06:13:45;8.05;;;3.58;;
21297;SDS011;10808;48.010;11.326;2023-04-25T06:16:11;4.32;;;3.22;;
21297;SDS011;10808;48.010;11.326;2023-04-25T06:18:37;6.43;;;3.40;;
21297;SDS011;10808;48.010;11.326;2023-04-25T06:21:03;7.15;;;3.65;;
21297;SDS011;10808;48.010;11.326;2023-04-25T06:23:29;5.45;;;3.30;;
21297;SDS011;10808;48.010;11.326;2023-04-25T06:25:56;6.93;;;3.95;;
21297;SDS011;10808;48.010;11.326;2023-04-25T06:28:22;6.78;;;3.60;;
21297;SDS011;10808;48.010;11.326;2023-04-25T06:30:48;5.70;;;3.67;;
21297;SDS011;10808;48.010;11.326;2023-04-25T06:33:14;6.40;;;3.72;;
21297;SDS011;10808;48.010;11.326;2023-04-25T06:35:40;6.30;;;3.67;;
21297;SDS011;10808;48.010;11.326;2023-04-25T06:38:06;6.50;;;3.70;;
21297;SDS011;10808;48.010;11.326;2023-04-25T06:40:33;8.52;;;4.03;;
21297;SDS011;10808;48.010;11.326;2023-04-25T06:42:59;6.27;;;3.87;;
21297;SDS011;10808;48.010;11.326;2023-04-25T06:45:25;6.43;;;4.15;;
21297;SDS011;10808;48.010;11.326;2023-04-25T06:47:51;5.20;;;3.85;;
21297;SDS011;10808;48.010;11.326;2023-04-25T06:50:17;6.97;;;3.83;;
21297;SDS011;10808;48.010;11.326;2023-04-25T06:52:43;8.27;;;4.40;;
21297;SDS011;10808;48.010;11.326;2023-04-25T06:55:09;5.63;;;4.13;;
21297;SDS011;10808;48.010;11.326;2023-04-25T06:57:35;5.10;;;4.10;;
21297;SDS011;10808;48.010;11.326;2023-04-25T07:00:01;5.90;;;4.07;;
21297;SDS011;10808;48.010;11.326;2023-04-25T07:02:30;7.63;;;3.80;;
21297;SDS011;10808;48.010;11.326;2023-04-25T07:04:56;7.35;;;4.85;;
21297;SDS011;10808;48.010;11.326;2023-04-25T07:07:25;7.22;;;4.32;;
21297;SDS011;10808;48.010;11.326;2023-04-25T07:09:52;5.30;;;4.20;;
21297;SDS011;10808;48.010;11.326;2023-04-25T07:12:18;9.32;;;4.50;;
21297;SDS011;10808;48.010;11.326;2023-04-25T07:14:44;7.45;;;4.40;;
21297;SDS011;10808;48.010;11.326;2023-04-25T07:17:10;9.38;;;4.40;;
21297;SDS011;10808;48.010;11.326;2023-04-25T07:19:36;7.13;;;4.32;;
21297;SDS011;10808;48.010;11.326;2023-04-25T07:22:04;6.88;;;4.10;;
21297;SDS011;10808;48.010;11.326;2023-04-25T07:24:31;6.85;;;4.10;;
21297;SDS011;10808;48.010;11.326;2023-04-25T07:26:57;5.95;;;4.00;;
21297;SDS011;10808;48.010;11.326;2023-04-25T07:29:23;5.38;;;3.50;;
21297;SDS011;10808;48.010;11.326;2023-04-25T07:31:49;7.20;;;3.50;;
21297;SDS011;10808;48.010;11.326;2023-04-25T07:34:15;5.00;;;3.50;;
21297;SDS011;10808;48.010;11.326;2023-04-25T07:36:41;4.88;;;3.30;;
21297;SDS011;10808;48.010;11.326;2023-04-25T07:39:08;5.10;;;3.13;;
21297;SDS011;10808;48.010;11.326;2023-04-25T07:41:34;5.95;;;2.90;;
21297;SDS011;10808;48.010;11.326;2023-04-25T07:44:00;6.10;;;3.42;;
21297;SDS011;10808;48.010;11.326;2023-04-25T07:46:26;7.03;;;3.58;;
21297;SDS011;10808;48.010;11.326;2023-04-25T07:48:52;7.25;;;3.78;;
21297;SDS011;10808;48.010;11.326;2023-04-25T07:51:18;5.97;;;3.57;;
21297;SDS011;10808;48.010;11.326;2023-04-25T07:53:45;6.40;;;3.90;;
21297;SDS011;10808;48.010;11.326;2023-04-25T07:56:12;3.63;;;2.92;;
21297;SDS011;10808;48.010;11.326;2023-04-25T07:58:38;5.47;;;2.85;;
21297;SDS011;10808;48.010;11.326;2023-04-25T08:01:04;4.55;;;2.80;;
21297;SDS011;10808;48.010;11.326;2023-04-25T08:03:30;6.57;;;3.00;;
21297;SDS011;10808;48.010;11.326;2023-04-25T08:05:56;6.55;;;3.30;;
21297;SDS011;10808;48.010;11.326;2023-04-25T08:08:22;4.13;;;2.80;;
21297;SDS011;10808;48.010;11.326;2023-04-25T08:10:48;6.00;;;3.25;;
21297;SDS011;10808;48.010;11.326;2023-04-25T08:13:14;5.32;;;3.00;;
21297;SDS011;10808;48.010;11.326;2023-04-25T08:15:40;4.95;;;2.83;;
21297;SDS011;10808;48.010;11.326;2023-04-25T08:18:06;5.22;;;3.03;;
21297;SDS011;10808;48.010;11.326;2023-04-25T08:20:32;6.97;;;3.10;;
21297;SDS011;10808;48.010;11.326;2023-04-25T08:22:58;4.85;;;3.00;;
21297;SDS011;10808;48.010;11.326;2023-04-25T08:25:24;6.82;;;3.10;;
21297;SDS011;10808;48.010;11.326;2023-04-25T08:27:50;5.95;;;3.00;;
21297;SDS011;10808;48.010;11.326;2023-04-25T08:30:16;6.20;;;3.20;;
21297;SDS011;10808;48.010;11.326;2023-04-25T08:32:42;7.00;;;3.20;;
21297;SDS011;10808;48.010;11.326;2023-04-25T08:35:09;5.18;;;3.30;;
21297;SDS011;10808;48.010;11.326;2023-04-25T08:37:35;7.53;;;3.25;;
21297;SDS011;10808;48.010;11.326;2023-04-25T08:40:01;5.95;;;3.20;;
21297;SDS011;10808;48.010;11.326;2023-04-25T08:42:33;7.80;;;3.47;;
21297;SDS011;10808;48.010;11.326;2023-04-25T08:45:01;7.68;;;3.15;;
21297;SDS011;10808;48.010;11.326;2023-04-25T08:47:28;5.57;;;3.40;;
21297;SDS011;10808;48.010;11.326;2023-04-25T08:49:57;4.72;;;3.05;;
21297;SDS011;10808;48.010;11.326;2023-04-25T08:52:27;10.97;;;5.67;;
21297;SDS011;10808;48.010;11.326;2023-04-25T08:54:57;6.15;;;3.42;;
21297;SDS011;10808;48.010;11.326;2023-04-25T08:57:25;6.50;;;3.20;;
21297;SDS011;10808;48.010;11.326;2023-04-25T08:59:52;3.70;;;2.50;;
21297;SDS011;10808;48.010;11.326;2023-04-25T09:02:19;4.63;;;2.60;;
21297;SDS011;10808;48.010;11.326;2023-04-25T09:04:46;3.50;;;2.60;;
21297;SDS011;10808;48.010;11.326;2023-04-25T09:07:13;2.97;;;2.15;;
21297;SDS011;10808;48.010;11.326;2023-04-25T09:09:43;3.17;;;2.28;;
21297;SDS011;10808;48.010;11.326;2023-04-25T09:12:10;4.78;;;2.30;;
21297;SDS011;10808;48.010;11.326;2023-04-25T09:14:36;3.63;;;2.33;;
21297;SDS011;10808;48.010;11.326;2023-04-25T09:17:03;3.42;;;2.30;;
21297;SDS011;10808;48.010;11.326;2023-04-25T09:19:31;3.53;;;2.20;;
21297;SDS011;10808;48.010;11.326;2023-04-25T09:22:01;4.00;;;2.20;;
21297;SDS011;10808;48.010;11.326;2023-04-25T09:24:32;3.93;;;2.27;;
21297;SDS011;10808;48.010;11.326;2023-04-25T09:26:59;2.67;;;2.08;;
21297;SDS011;10808;48.010;11.326;2023-04-25T09:29:29;2.95;;;1.88;;
21297;SDS011;10808;48.010;11.326;2023-04-25T09:34:52;4.38;;;2.17;;
21297;SDS011;10808;48.010;11.326;2023-04-25T09:37:23;4.15;;;2.10;;
21297;SDS011;10808;48.010;11.326;2023-04-25T09:39:55;5.72;;;2.50;;
21297;SDS011;10808;48.010;11.326;2023-04-25T09:42:23;3.05;;;2.30;;
21297;SDS011;10808;48.010;11.326;2023-04-25T09:44:53;3.65;;;2.00;;
21297;SDS011;10808;48.010;11.326;2023-04-25T09:47:22;2.67;;;2.00;;
21297;SDS011;10808;48.010;11.326;2023-04-25T09:49:49;9.27;;;2.20;;
21297;SDS011;10808;48.010;11.326;2023-04-25T09:52:19;3.50;;;2.00;;
21297;SDS011;10808;48.010;11.326;2023-04-25T09:54:47;4.55;;;2.50;;
21297;SDS011;10808;48.010;11.326;2023-04-25T09:57:18;4.47;;;1.90;;
21297;SDS011;10808;48.010;11.326;2023-04-25T09:59:54;4.22;;;1.90;;
21297;SDS011;10808;48.010;11.326;2023-04-25T10:02:22;2.20;;;2.00;;
21297;SDS011;10808;48.010;11.326;2023-04-25T10:04:51;2.85;;;2.13;;
21297;SDS011;10808;48.010;11.326;2023-04-25T10:07:24;3.30;;;1.80;;
21297;SDS011;10808;48.010;11.326;2023-04-25T10:10:02;4.68;;;2.00;;
21297;SDS011;10808;48.010;11.326;2023-04-25T10:12:30;2.80;;;2.00;;
21297;SDS011;10808;48.010;11.326;2023-04-25T10:14:58;2.13;;;1.90;;
21297;SDS011;10808;48.010;11.326;2023-04-25T10:17:26;3.63;;;2.13;;
21297;SDS011;10808;48.010;11.326;2023-04-25T10:19:55;4.22;;;2.00;;
21297;SDS011;10808;48.010;11.326;2023-04-25T10:25:02;3.38;;;1.85;;
21297;SDS011;10808;48.010;11.326;2023-04-25T10:27:32;3.90;;;2.15;;
21297;SDS011;10808;48.010;11.326;2023-04-25T10:30:03;3.20;;;2.20;;
21297;SDS011;10808;48.010;11.326;2023-04-25T10:32:36;4.60;;;2.35;;
21297;SDS011;10808;48.010;11.326;2023-04-25T10:35:12;4.40;;;2.00;;
21297;SDS011;10808;48.010;11.326;2023-04-25T10:40:28;4.47;;;2.40;;
21297;SDS011;10808;48.010;11.326;2023-04-25T10:42:55;3.10;;;2.20;;
21297;SDS011;10808;48.010;11.326;2023-04-25T10:45:51;2.65;;;2.28;;
21297;SDS011;10808;48.010;11.326;2023-04-25T10:48:26;4.82;;;2.65;;
21297;SDS011;10808;48.010;11.326;2023-04-25T10:51:09;5.35;;;2.50;;
21297;SDS011;10808;48.010;11.326;2023-04-25T10:53:36;3.27;;;2.37;;
21297;SDS011;10808;48.010;11.326;2023-04-25T10:56:16;3.47;;;2.30;;
21297;SDS011;10808;48.010;11.326;2023-04-25T10:58:44;3.75;;;2.53;;
21297;SDS011;10808;48.010;11.326;2023-04-25T11:01:14;3.58;;;2.50;;
21297;SDS011;10808;48.010;11.326;2023-04-25T11:03:45;3.83;;;2.60;;
21297;SDS011;10808;48.010;11.326;2023-04-25T11:06:17;3.17;;;2.42;;
21297;SDS011;10808;48.010;11.326;2023-04-25T11:08:55;3.80;;;2.60;;
21297;SDS011;10808;48.010;11.326;2023-04-25T11:11:21;3.38;;;2.70;;
21297;SDS011;10808;48.010;11.326;2023-04-25T11:13:47;5.17;;;2.90;;
21297;SDS011;10808;48.010;11.326;2023-04-25T11:16:15;3.70;;;2.90;;
21297;SDS011;10808;48.010;11.326;2023-04-25T11:18:42;3.83;;;2.83;;
21297;SDS011;10808;48.010;11.326;2023-04-25T11:21:14;4.00;;;2.70;;
21297;SDS011;10808;48.010;11.326;2023-04-25T11:23:44;4.33;;;2.80;;
21297;SDS011;10808;48.010;11.326;2023-04-25T11:26:12;5.93;;;2.70;;
21297;SDS011;10808;48.010;11.326;2023-04-25T11:28:39;3.80;;;2.70;;
21297;SDS011;10808;48.010;11.326;2023-04-25T11:31:05;3.47;;;2.80;;
21297;SDS011;10808;48.010;11.326;2023-04-25T11:33:32;5.72;;;2.70;;
21297;SDS011;10808;48.010;11.326;2023-04-25T11:35:58;5.40;;;2.80;;
21297;SDS011;10808;48.010;11.326;2023-04-25T11:38:24;3.17;;;2.40;;
21297;SDS011;10808;48.010;11.326;2023-04-25T11:40:52;3.60;;;2.17;;
21297;SDS011;10808;48.010;11.326;2023-04-25T11:43:22;4.22;;;2.20;;
21297;SDS011;10808;48.010;11.326;2023-04-25T11:45:49;3.92;;;2.22;;
21297;SDS011;10808;48.010;11.326;2023-04-25T11:48:16;2.70;;;2.03;;
21297;SDS011;10808;48.010;11.326;2023-04-25T11:50:43;4.43;;;2.60;;
21297;SDS011;10808;48.010;11.326;2023-04-25T11:53:09;3.17;;;2.30;;
21297;SDS011;10808;48.010;11.326;2023-04-25T11:55:36;2.95;;;2.13;;
21297;SDS011;10808;48.010;11.326;2023-04-25T11:58:03;3.13;;;1.92;;
21297;SDS011;10808;48.010;11.326;2023-04-25T12:00:30;3.60;;;1.80;;
21297;SDS011;10808;48.010;11.326;2023-04-25T12:02:56;1.80;;;1.40;;
21297;SDS011;10808;48.010;11.326;2023-04-25T12:05:24;3.35;;;1.70;;
21297;SDS011;10808;48.010;11.326;2023-04-25T12:07:51;1.80;;;1.60;;
21297;SDS011;10808;48.010;11.326;2023-04-25T12:10:18;3.00;;;1.60;;
21297;SDS011;10808;48.010;11.326;2023-04-25T12:12:45;3.40;;;1.40;;
21297;SDS011;10808;48.010;11.326;2023-04-25T12:15:13;2.47;;;1.42;;
21297;SDS011;10808;48.010;11.326;2023-04-25T12:17:49;1.73;;;1.15;;
21297;SDS011;10808;48.010;11.326;2023-04-25T12:20:17;1.93;;;1.10;;
21297;SDS011;10808;48.010;11.326;2023-04-25T12:22:49;1.73;;;1.10;;
21297;SDS011;10808;48.010;11.326;2023-04-25T12:28:11;1.50;;;1.10;;
21297;SDS011;10808;48.010;11.326;2023-04-25T12:33:41;2.40;;;1.20;;
21297;SDS011;10808;48.010;11.326;2023-04-25T12:36:09;1.30;;;1.20;;
21297;SDS011;10808;48.010;11.326;2023-04-25T12:38:38;1.13;;;1.03;;
21297;SDS011;10808;48.010;11.326;2023-04-25T12:41:06;1.38;;;1.20;;
21297;SDS011;10808;48.010;11.326;2023-04-25T12:43:32;1.30;;;1.20;;
21297;SDS011;10808;48.010;11.326;2023-04-25T12:45:58;1.40;;;1.30;;
21297;SDS011;10808;48.010;11.326;2023-04-25T12:48:24;2.10;;;1.23;;
21297;SDS011;10808;48.010;11.326;2023-04-25T12:50:50;2.25;;;1.30;;
21297;SDS011;10808;48.010;11.326;2023-04-25T12:53:22;1.30;;;1.10;;
21297;SDS011;10808;48.010;11.326;2023-04-25T12:55:51;1.65;;;1.20;;
21297;SDS011;10808;48.010;11.326;2023-04-25T12:58:18;1.13;;;1.02;;
21297;SDS011;10808;48.010;11.326;2023-04-25T13:00:45;1.15;;;1.00;;
21297;SDS011;10808;48.010;11.326;2023-04-25T13:03:11;1.10;;;0.93;;
21297;SDS011;10808;48.010;11.326;2023-04-25T13:05:38;1.20;;;1.10;;
21297;SDS011;10808;48.010;11.326;2023-04-25T13:08:04;1.10;;;1.00;;
21297;SDS011;10808;48.010;11.326;2023-04-25T13:10:30;1.10;;;1.00;;
21297;SDS011;10808;48.010;11.326;2023-04-25T13:12:56;1.83;;;1.30;;
21297;SDS011;10808;48.010;11.326;2023-04-25T13:15:22;2.13;;;1.35;;
21297;SDS011;10808;48.010;11.326;2023-04-25T13:17:48;1.65;;;1.38;;
21297;SDS011;10808;48.010;11.326;2023-04-25T13:20:15;1.23;;;1.05;;
21297;SDS011;10808;48.010;11.326;2023-04-25T13:22:41;1.10;;;0.90;;
21297;SDS011;10808;48.010;11.326;2023-04-25T13:25:08;0.90;;;0.90;;
21297;SDS011;10808;48.010;11.326;2023-04-25T13:27:34;1.08;;;0.90;;
21297;SDS011;10808;48.010;11.326;2023-04-25T13:30:03;1.10;;;0.70;;
21297;SDS011;10808;48.010;11.326;2023-04-25T13:32:35;0.90;;;0.77;;
21297;SDS011;10808;48.010;11.326;2023-04-25T13:35:03;1.20;;;1.00;;
21297;SDS011;10808;48.010;11.326;2023-04-25T13:37:39;0.80;;;0.80;;
21297;SDS011;10808;48.010;11.326;2023-04-25T13:40:09;0.95;;;0.95;;
21297;SDS011;10808;48.010;11.326;2023-04-25T13:42:36;1.05;;;0.90;;
21297;SDS011;10808;48.010;11.326;2023-04-25T13:45:03;1.10;;;1.00;;
21297;SDS011;10808;48.010;11.326;2023-04-25T13:47:29;0.93;;;0.93;;
21297;SDS011;10808;48.010;11.326;2023-04-25T13:49:55;1.97;;;1.10;;
21297;SDS011;10808;48.010;11.326;2023-04-25T13:52:22;1.70;;;1.05;;
21297;SDS011;10808;48.010;11.326;2023-04-25T13:54:52;2.57;;;1.57;;
21297;SDS011;10808;48.010;11.326;2023-04-25T13:57:21;1.20;;;1.10;;
21297;SDS011;10808;48.010;11.326;2023-04-25T13:59:51;1.03;;;1.00;;
21297;SDS011;10808;48.010;11.326;2023-04-25T14:02:18;1.15;;;1.05;;
21297;SDS011;10808;48.010;11.326;2023-04-25T14:04:44;1.30;;;1.20;;
21297;SDS011;10808;48.010;11.326;2023-04-25T14:07:10;1.10;;;1.00;;
21297;SDS011;10808;48.010;11.326;2023-04-25T14:09:36;1.48;;;1.38;;
21297;SDS011;10808;48.010;11.326;2023-04-25T14:12:02;1.33;;;1.20;;
21297;SDS011;10808;48.010;11.326;2023-04-25T14:14:28;1.55;;;1.27;;
21297;SDS011;10808;48.010;11.326;2023-04-25T14:16:54;1.23;;;1.13;;
21297;SDS011;10808;48.010;11.326;2023-04-25T14:19:22;1.63;;;1.40;;
21297;SDS011;10808;48.010;11.326;2023-04-25T14:21:49;1.48;;;1.38;;
21297;SDS011;10808;48.010;11.326;2023-04-25T14:24:15;1.40;;;1.30;;
21297;SDS011;10808;48.010;11.326;2023-04-25T14:26:41;1.70;;;1.40;;
21297;SDS011;10808;48.010;11.326;2023-04-25T14:29:08;1.40;;;1.23;;
21297;SDS011;10808;48.010;11.326;2023-04-25T14:31:34;1.40;;;1.30;;
21297;SDS011;10808;48.010;11.326;2023-04-25T14:34:01;1.55;;;1.45;;
21297;SDS011;10808;48.010;11.326;2023-04-25T14:36:28;1.30;;;1.20;;
21297;SDS011;10808;48.010;11.326;2023-04-25T14:38:58;1.40;;;1.08;;
21297;SDS011;10808;48.010;11.326;2023-04-25T14:41:24;1.40;;;1.23;;
21297;SDS011;10808;48.010;11.326;2023-04-25T14:43:51;1.52;;;0.85;;
21297;SDS011;10808;48.010;11.326;2023-04-25T14:46:22;1.00;;;0.90;;